createdAt,value
2022-11-14T00:00:54.409Z,44.68
2022-11-14T00:03:20.800Z,45.05
2022-11-14T00:05:47.543Z,44.98
2022-11-14T00:08:20.075Z,45.49
2022-11-14T00:10:48.212Z,45.19
2022-11-14T00:13:15.466Z,45.18
2022-11-14T00:15:41.830Z,45.01
2022-11-14T00:18:08.483Z,44.98
2022-11-14T00:20:35.248Z,45.21
2022-11-14T00:23:01.682Z,44.97
2022-11-14T00:25:28.182Z,45.05
2022-11-14T00:27:57.986Z,45.28
2022-11-14T00:30:24.403Z,45.22
2022-11-14T00:32:50.712Z,44.66
2022-11-14T00:35:17.156Z,45.35
2022-11-14T00:37:43.498Z,45.56
2022-11-14T00:40:10.241Z,45.51
2022-11-14T00:42:36.635Z,45.31
2022-11-14T00:45:03.267Z,45.71
2022-11-14T00:47:29.906Z,45.17
2022-11-14T00:49:56.401Z,45.69
2022-11-14T00:52:22.771Z,45.80
2022-11-14T00:54:49.076Z,45.30
2022-11-14T00:57:15.598Z,45.39
2022-11-14T00:59:41.979Z,45.38
2022-11-14T01:02:08.351Z,45.35
2022-11-14T01:04:34.708Z,45.93
2022-11-14T01:07:03.117Z,45.91
2022-11-14T01:09:29.784Z,45.53
2022-11-14T01:11:56.210Z,45.62
2022-11-14T01:14:22.699Z,45.83
2022-11-14T01:16:49.627Z,45.51
2022-11-14T01:19:15.978Z,45.45
2022-11-14T01:21:42.387Z,45.99
2022-11-14T01:24:10.453Z,45.64
2022-11-14T01:26:37.015Z,45.85
2022-11-14T01:29:03.506Z,46.06
2022-11-14T01:31:30.060Z,46.12
2022-11-14T01:33:56.439Z,46.31
2022-11-14T01:36:22.859Z,46.03
2022-11-14T01:38:53.872Z,46.69
2022-11-14T01:41:21.395Z,45.99
2022-11-14T01:43:48.532Z,46.36
2022-11-14T01:46:32.672Z,47.18
2022-11-14T01:49:13.280Z,46.86
2022-11-14T01:51:48.681Z,47.12
2022-11-14T01:54:21.979Z,46.45
2022-11-14T01:56:55.109Z,46.51
2022-11-14T01:59:25.652Z,46.42
2022-11-14T02:01:54.152Z,46.13
2022-11-14T02:04:26.375Z,47.48
2022-11-14T02:06:57.606Z,46.95
2022-11-14T02:09:24.111Z,46.20
2022-11-14T02:11:51.939Z,46.58
2022-11-14T02:14:18.451Z,46.49
2022-11-14T02:16:55.695Z,46.05
2022-11-14T02:19:46.976Z,47.48
2022-11-14T02:22:13.502Z,46.06
2022-11-14T02:24:40.352Z,46.12
2022-11-14T02:27:07.431Z,45.83
2022-11-14T02:29:35.013Z,46.42
2022-11-14T02:32:04.702Z,46.37
2022-11-14T02:34:34.469Z,46.37
2022-11-14T02:37:00.855Z,46.25
2022-11-14T02:39:27.350Z,46.36
2022-11-14T02:41:53.854Z,46.10
2022-11-14T02:44:20.331Z,46.91
2022-11-14T02:46:46.998Z,46.82
2022-11-14T02:49:13.525Z,46.52
2022-11-14T02:51:41.356Z,46.33
2022-11-14T02:54:08.351Z,46.02
2022-11-14T02:56:35.355Z,46.32
2022-11-14T02:59:01.730Z,46.52
2022-11-14T03:01:28.183Z,46.34
2022-11-14T03:03:54.748Z,46.20
2022-11-14T03:06:21.147Z,46.42
2022-11-14T03:08:47.509Z,46.91
2022-11-14T03:11:13.833Z,47.29
2022-11-14T03:13:40.313Z,46.74
2022-11-14T03:16:08.838Z,46.47
2022-11-14T03:18:35.576Z,47.56
2022-11-14T03:21:07.076Z,46.70
2022-11-14T03:23:33.478Z,46.39
2022-11-14T03:26:02.319Z,46.62
2022-11-14T03:28:29.642Z,46.29
2022-11-14T03:30:56.261Z,46.94
2022-11-14T03:33:22.975Z,46.58
2022-11-14T03:35:50.906Z,46.43
2022-11-14T03:38:18.348Z,47.00
2022-11-14T03:40:45.094Z,46.69
2022-11-14T03:43:11.596Z,47.01
2022-11-14T03:45:38.085Z,46.54
2022-11-14T03:48:06.365Z,46.25
2022-11-14T03:50:33.134Z,46.76
2022-11-14T03:52:59.789Z,46.23
2022-11-14T03:55:26.693Z,46.21
2022-11-14T03:57:53.128Z,47.08
2022-11-14T04:00:21.074Z,46.55
2022-11-14T04:02:47.811Z,46.63
2022-11-14T04:05:14.304Z,46.78
2022-11-14T04:07:41.046Z,46.88
2022-11-14T04:10:08.019Z,46.53
2022-11-14T04:12:34.332Z,46.16
2022-11-14T04:15:03.101Z,46.83
2022-11-14T04:17:29.511Z,46.94
2022-11-14T04:19:55.833Z,46.46
2022-11-14T04:22:22.201Z,46.64
2022-11-14T04:24:48.691Z,46.49
2022-11-14T04:27:15.310Z,47.10
2022-11-14T04:29:41.657Z,47.04
2022-11-14T04:32:08.008Z,46.34
2022-11-14T04:34:34.502Z,47.08
2022-11-14T04:37:01.016Z,46.33
2022-11-14T04:39:27.356Z,47.33
2022-11-14T04:41:53.734Z,46.71
2022-11-14T04:44:20.265Z,46.64
2022-11-14T04:46:48.045Z,46.59
2022-11-14T04:49:14.868Z,47.07
2022-11-14T04:51:41.229Z,47.45
2022-11-14T04:54:08.101Z,47.05
2022-11-14T04:56:34.499Z,47.30
2022-11-14T04:59:00.853Z,47.08
2022-11-14T05:01:27.304Z,46.64
2022-11-14T05:03:53.790Z,46.86
2022-11-14T05:06:20.184Z,47.33
2022-11-14T05:08:46.633Z,47.48
2022-11-14T05:11:17.618Z,46.91
2022-11-14T05:13:44.441Z,47.11
2022-11-14T05:16:11.102Z,47.08
2022-11-14T05:18:39.866Z,47.61
2022-11-14T05:21:14.688Z,47.75
2022-11-14T05:23:41.801Z,46.88
2022-11-14T05:26:10.679Z,47.28
2022-11-14T05:28:37.352Z,46.58
2022-11-14T05:31:07.285Z,46.94
2022-11-14T05:33:35.102Z,46.64
2022-11-14T05:36:03.402Z,47.05
2022-11-14T05:38:30.188Z,47.42
2022-11-14T05:40:56.720Z,46.81
2022-11-14T05:43:23.180Z,46.68
2022-11-14T05:45:49.505Z,46.79
2022-11-14T05:48:15.838Z,47.42
2022-11-14T05:50:42.180Z,47.47
2022-11-14T05:53:08.713Z,47.24
2022-11-14T05:55:35.007Z,47.77
2022-11-14T05:58:01.515Z,47.54
2022-11-14T06:00:27.841Z,47.51
2022-11-14T06:02:55.524Z,47.18
2022-11-14T06:05:22.832Z,47.56
2022-11-14T06:07:56.343Z,47.95
2022-11-14T06:10:23.473Z,47.34
2022-11-14T06:12:50.078Z,47.41
2022-11-14T06:15:16.685Z,47.42
2022-11-14T06:17:43.020Z,47.02
2022-11-14T06:20:09.935Z,47.07
2022-11-14T06:22:36.271Z,47.81
2022-11-14T06:25:03.242Z,47.74
2022-11-14T06:27:29.626Z,47.42
2022-11-14T06:29:56.038Z,47.48
2022-11-14T06:32:22.370Z,47.99
2022-11-14T06:34:48.711Z,47.33
2022-11-14T06:37:15.312Z,47.78
2022-11-14T06:39:41.873Z,47.63
2022-11-14T06:42:08.381Z,47.62
2022-11-14T06:44:34.873Z,47.97
2022-11-14T06:47:01.365Z,48.02
2022-11-14T06:49:27.966Z,47.86
2022-11-14T06:51:54.477Z,47.55
2022-11-14T06:54:21.080Z,47.52
2022-11-14T06:56:47.566Z,47.51
2022-11-14T06:59:14.459Z,47.55
2022-11-14T07:01:40.816Z,47.69
2022-11-14T07:04:07.206Z,48.06
2022-11-14T07:06:33.539Z,48.21
2022-11-14T07:09:00.124Z,48.19
2022-11-14T07:11:29.512Z,48.22
2022-11-14T07:13:58.395Z,48.58
2022-11-14T07:16:32.816Z,48.81
2022-11-14T07:19:00.211Z,48.27
2022-11-14T07:21:28.229Z,48.14
2022-11-14T07:23:55.023Z,47.88
2022-11-14T07:26:21.539Z,47.95
2022-11-14T07:28:52.228Z,47.77
2022-11-14T07:31:20.458Z,47.98
2022-11-14T07:33:47.136Z,48.18
2022-11-14T07:36:15.358Z,48.36
2022-11-14T07:38:42.174Z,48.25
2022-11-14T07:41:11.227Z,48.54
2022-11-14T07:43:37.865Z,48.48
2022-11-14T07:46:11.367Z,48.36
2022-11-14T07:48:37.709Z,47.89
2022-11-14T07:51:06.514Z,48.19
2022-11-14T07:53:33.983Z,48.41
2022-11-14T07:56:11.883Z,48.65
2022-11-14T07:58:39.907Z,48.46
2022-11-14T08:01:08.169Z,48.13
2022-11-14T08:03:34.965Z,48.47
2022-11-14T08:06:10.593Z,48.83
2022-11-14T08:08:37.664Z,48.40
2022-11-14T08:11:04.706Z,48.28
2022-11-14T08:13:33.605Z,47.95
2022-11-14T08:16:09.120Z,48.44
2022-11-14T08:18:38.034Z,48.13
2022-11-14T08:21:05.354Z,48.20
2022-11-14T08:23:32.551Z,47.87
2022-11-14T08:26:00.021Z,48.22
2022-11-14T08:28:26.875Z,48.47
2022-11-14T08:30:58.228Z,48.20
2022-11-14T08:33:24.572Z,48.58
2022-11-14T08:35:52.223Z,48.51
2022-11-14T08:38:18.608Z,48.58
2022-11-14T08:40:46.210Z,48.02
2022-11-14T08:43:12.808Z,48.28
2022-11-14T08:45:39.189Z,48.03
2022-11-14T08:48:05.908Z,48.04
2022-11-14T08:50:32.471Z,47.71
2022-11-14T08:52:58.815Z,48.14
2022-11-14T08:55:25.147Z,47.70
2022-11-14T08:57:53.451Z,47.73
2022-11-14T09:00:20.142Z,47.88
2022-11-14T09:02:47.006Z,47.78
2022-11-14T09:05:13.487Z,47.69
2022-11-14T09:07:40.151Z,47.77
2022-11-14T09:10:07.414Z,47.49
2022-11-14T09:12:34.067Z,47.77
2022-11-14T09:15:00.946Z,47.81
2022-11-14T09:17:27.446Z,47.40
2022-11-14T09:19:54.501Z,47.82
2022-11-14T09:22:20.884Z,47.48
2022-11-14T09:24:47.891Z,47.56
2022-11-14T09:27:14.487Z,47.45
2022-11-14T09:29:40.896Z,47.84
2022-11-14T09:32:07.451Z,47.95
2022-11-14T09:34:33.958Z,47.86
2022-11-14T09:37:00.277Z,47.92
2022-11-14T09:39:26.886Z,48.05
2022-11-14T09:42:16.826Z,48.17
2022-11-14T09:44:55.825Z,47.94
2022-11-14T09:47:48.124Z,47.64
2022-11-14T09:50:24.433Z,47.27
2022-11-14T09:52:58.499Z,46.91
2022-11-14T09:55:36.837Z,47.59
2022-11-14T09:58:06.246Z,47.30
2022-11-14T10:00:44.687Z,47.19
2022-11-14T10:03:23.693Z,47.47
2022-11-14T10:06:15.710Z,47.14
2022-11-14T10:09:03.361Z,47.77
2022-11-14T10:11:34.800Z,47.55
2022-11-14T10:14:31.418Z,47.42
2022-11-14T10:17:18.999Z,47.33
2022-11-14T10:20:16.555Z,47.03
2022-11-14T10:23:06.590Z,46.31
2022-11-14T10:25:56.580Z,46.23
2022-11-14T10:28:32.371Z,45.47
2022-11-14T10:31:27.045Z,45.82
2022-11-14T10:34:04.312Z,45.79
2022-11-14T10:36:42.060Z,45.73
2022-11-14T10:39:35.249Z,45.80
2022-11-14T10:42:09.783Z,45.74
2022-11-14T10:44:43.290Z,45.78
2022-11-14T10:47:15.584Z,45.49
2022-11-14T10:49:44.869Z,45.80
2022-11-14T10:52:16.597Z,45.08
2022-11-14T10:54:51.040Z,45.31
2022-11-14T10:57:19.572Z,45.12
2022-11-14T10:59:46.233Z,45.27
2022-11-14T11:02:13.487Z,44.69
2022-11-14T11:04:42.383Z,44.89
2022-11-14T11:07:08.820Z,44.98
2022-11-14T11:09:56.102Z,44.69
2022-11-14T11:12:42.668Z,44.40
2022-11-14T11:15:31.398Z,44.38
2022-11-14T11:18:06.323Z,44.18
2022-11-14T11:20:34.545Z,44.41
2022-11-14T11:23:10.180Z,44.25
2022-11-14T11:25:38.735Z,44.19
2022-11-14T11:28:05.708Z,44.52
2022-11-14T11:30:32.359Z,44.10
2022-11-14T11:33:23.266Z,43.96
2022-11-14T11:35:51.041Z,44.18
2022-11-14T11:38:19.728Z,44.02
2022-11-14T11:40:49.645Z,43.88
2022-11-14T11:43:52.523Z,43.52
2022-11-14T11:46:32.598Z,43.75
2022-11-14T11:49:15.635Z,44.18
2022-11-14T11:51:45.265Z,43.79
2022-11-14T11:54:26.619Z,43.43
2022-11-14T11:56:59.460Z,43.39
2022-11-14T11:59:38.817Z,43.13
2022-11-14T12:02:21.765Z,43.12
2022-11-14T12:04:50.800Z,43.49
2022-11-14T12:07:25.566Z,43.26
2022-11-14T12:10:10.582Z,43.06
2022-11-14T12:12:44.046Z,43.07
2022-11-14T12:15:42.097Z,42.91
2022-11-14T12:18:32.927Z,42.75
2022-11-14T12:21:23.211Z,42.78
2022-11-14T12:24:08.367Z,43.07
2022-11-14T12:26:42.405Z,42.42
2022-11-14T12:29:38.132Z,42.44
2022-11-14T12:32:12.284Z,42.76
2022-11-14T12:34:45.427Z,42.53
2022-11-14T12:37:24.735Z,42.43
2022-11-14T12:40:00.255Z,42.23
2022-11-14T12:42:29.155Z,42.69
2022-11-14T12:44:56.104Z,42.50
2022-11-14T12:47:26.271Z,42.67
2022-11-14T12:49:52.732Z,42.64
2022-11-14T12:52:55.732Z,42.66
2022-11-14T12:55:24.983Z,42.81
2022-11-14T12:58:17.813Z,42.94
2022-11-14T13:00:44.093Z,43.33
2022-11-14T13:03:16.304Z,43.37
2022-11-14T13:06:03.975Z,43.13
2022-11-14T13:08:45.566Z,43.30
2022-11-14T13:11:58.612Z,42.83
2022-11-14T13:14:44.168Z,43.11
2022-11-14T13:17:43.210Z,42.38
2022-11-14T13:20:40.473Z,42.90
2022-11-14T13:23:25.241Z,42.60
2022-11-14T13:26:09.979Z,42.48
2022-11-14T13:28:36.493Z,42.66
2022-11-14T13:31:07.509Z,43.01
2022-11-14T13:33:44.379Z,42.11
2022-11-14T13:36:37.650Z,42.50
2022-11-14T13:39:20.308Z,42.21
2022-11-14T13:42:05.364Z,42.28
2022-11-14T13:44:50.561Z,42.16
2022-11-14T13:47:46.537Z,42.10
2022-11-14T13:50:19.088Z,41.87
2022-11-14T13:52:47.878Z,42.09
2022-11-14T13:55:33.248Z,42.14
2022-11-14T13:58:14.986Z,42.00
2022-11-14T14:00:57.822Z,41.96
2022-11-14T14:03:46.028Z,41.88
2022-11-14T14:06:34.873Z,42.19
2022-11-14T14:09:19.381Z,41.98
2022-11-14T14:12:04.801Z,42.28
2022-11-14T14:14:38.684Z,42.26
2022-11-14T14:17:25.958Z,42.72
2022-11-14T14:19:58.377Z,43.10
2022-11-14T14:22:57.031Z,42.89
2022-11-14T14:25:42.034Z,42.87
2022-11-14T14:28:34.739Z,42.56
2022-11-14T14:31:11.276Z,42.48
2022-11-14T14:33:47.892Z,42.53
2022-11-14T14:36:19.827Z,42.79
2022-11-14T14:38:47.375Z,42.95
2022-11-14T14:41:16.031Z,42.43
2022-11-14T14:43:43.527Z,43.16
2022-11-14T14:46:10.383Z,42.69
2022-11-14T14:48:41.988Z,42.60
2022-11-14T14:51:13.812Z,42.88
2022-11-14T14:53:51.667Z,43.32
2022-11-14T14:56:21.837Z,43.28
2022-11-14T14:58:48.243Z,43.11
2022-11-14T15:01:17.709Z,43.52
2022-11-14T15:03:51.540Z,43.18
2022-11-14T15:06:31.540Z,43.56
2022-11-14T15:09:00.718Z,42.96
2022-11-14T15:11:32.404Z,43.14
2022-11-14T15:14:01.563Z,43.12
2022-11-14T15:16:29.884Z,43.36
2022-11-14T15:18:58.203Z,42.63
2022-11-14T15:21:29.685Z,42.96
2022-11-14T15:24:18.958Z,42.85
2022-11-14T15:26:49.888Z,43.20
2022-11-14T15:29:19.546Z,42.90
2022-11-14T15:31:52.335Z,43.19
2022-11-14T15:34:28.359Z,42.89
2022-11-14T15:37:13.447Z,42.86
2022-11-14T15:39:42.096Z,42.92
2022-11-14T15:42:15.132Z,43.29
2022-11-14T15:44:45.321Z,42.72
2022-11-14T15:47:14.239Z,42.86
2022-11-14T15:49:53.977Z,43.12
2022-11-14T15:52:26.538Z,42.74
2022-11-14T15:54:52.893Z,43.17
2022-11-14T15:57:19.302Z,42.98
2022-11-14T15:59:45.808Z,43.03
2022-11-14T16:02:29.454Z,42.79
2022-11-14T16:04:57.665Z,43.12
2022-11-14T16:07:24.289Z,43.19
2022-11-14T16:09:51.251Z,43.22
2022-11-14T16:12:17.879Z,43.15
2022-11-14T16:14:45.084Z,43.54
2022-11-14T16:17:17.544Z,43.26
2022-11-14T16:19:44.244Z,43.40
2022-11-14T16:22:15.825Z,43.38
2022-11-14T16:24:42.222Z,43.28
2022-11-14T16:27:08.749Z,43.54
2022-11-14T16:29:35.381Z,43.48
2022-11-14T16:32:01.810Z,43.34
2022-11-14T16:34:28.411Z,43.41
2022-11-14T16:36:59.626Z,43.50
2022-11-14T16:39:26.091Z,43.18
2022-11-14T16:41:52.934Z,43.53
2022-11-14T16:44:19.338Z,43.34
2022-11-14T16:46:46.229Z,43.37
2022-11-14T16:49:17.331Z,43.61
2022-11-14T16:51:48.858Z,43.47
2022-11-14T16:54:17.802Z,43.60
2022-11-14T16:56:44.202Z,43.49
2022-11-14T16:59:11.226Z,43.88
2022-11-14T17:01:37.943Z,43.63
2022-11-14T17:04:05.070Z,43.86
2022-11-14T17:06:31.710Z,43.46
2022-11-14T17:08:59.819Z,43.70
2022-11-14T17:11:26.791Z,43.79
2022-11-14T17:13:56.530Z,43.63
2022-11-14T17:16:23.209Z,43.82
2022-11-14T17:18:54.585Z,43.73
2022-11-14T17:21:21.951Z,43.18
2022-11-14T17:23:56.584Z,43.78
2022-11-14T17:26:23.249Z,43.77
2022-11-14T17:28:49.939Z,43.67
2022-11-14T17:31:17.169Z,43.70
2022-11-14T17:33:44.609Z,43.89
2022-11-14T17:36:11.749Z,43.94
2022-11-14T17:38:38.606Z,44.02
2022-11-14T17:41:06.381Z,43.91
2022-11-14T17:43:39.491Z,43.90
2022-11-14T17:46:12.596Z,43.94
2022-11-14T17:48:41.860Z,44.06
2022-11-14T17:51:12.553Z,43.96
2022-11-14T17:53:39.562Z,44.10
2022-11-14T17:56:07.737Z,44.23
2022-11-14T17:58:34.632Z,44.08
2022-11-14T18:01:01.007Z,44.51
2022-11-14T18:03:28.304Z,44.36
2022-11-14T18:06:05.330Z,44.34
2022-11-14T18:08:32.036Z,44.28
2022-11-14T18:11:03.208Z,44.27
2022-11-14T18:13:29.782Z,44.36
2022-11-14T18:16:02.281Z,44.73
2022-11-14T18:18:32.142Z,44.49
2022-11-14T18:21:05.383Z,44.50
2022-11-14T18:23:31.885Z,44.39
2022-11-14T18:25:59.736Z,44.31
2022-11-14T18:28:26.102Z,44.48
2022-11-14T18:30:56.816Z,44.33
2022-11-14T18:33:23.358Z,44.17
2022-11-14T18:36:00.358Z,44.74
2022-11-14T18:38:30.346Z,44.54
2022-11-14T18:40:57.707Z,44.40
2022-11-14T18:43:24.395Z,44.52
2022-11-14T18:45:52.371Z,44.58
2022-11-14T18:48:18.891Z,44.60
2022-11-14T18:50:45.422Z,44.77
2022-11-14T18:53:11.937Z,44.42
2022-11-14T18:55:40.271Z,44.51
2022-11-14T18:58:07.655Z,44.59
2022-11-14T19:00:34.609Z,44.27
2022-11-14T19:03:05.819Z,44.64
2022-11-14T19:05:35.344Z,44.03
2022-11-14T19:08:02.095Z,44.47
2022-11-14T19:10:28.669Z,44.43
2022-11-14T19:12:55.168Z,44.14
2022-11-14T19:15:21.721Z,44.33
2022-11-14T19:17:48.527Z,44.24
2022-11-14T19:20:19.717Z,44.15
2022-11-14T19:22:46.542Z,44.35
2022-11-14T19:25:14.272Z,44.16
2022-11-14T19:27:40.645Z,44.10
2022-11-14T19:30:07.950Z,44.20
2022-11-14T19:32:34.446Z,44.09
2022-11-14T19:35:00.800Z,44.37
2022-11-14T19:37:29.839Z,44.09
2022-11-14T19:39:56.483Z,44.12
2022-11-14T19:42:23.083Z,43.79
2022-11-14T19:44:49.433Z,44.19
2022-11-14T19:47:16.021Z,43.93
2022-11-14T19:49:43.010Z,43.97
2022-11-14T19:52:09.362Z,43.95
2022-11-14T19:54:36.217Z,44.25
2022-11-14T19:57:02.594Z,43.99
2022-11-14T19:59:29.225Z,44.23
2022-11-14T20:01:55.917Z,43.85
2022-11-14T20:04:22.603Z,44.19
2022-11-14T20:06:48.990Z,44.19
2022-11-14T20:09:16.696Z,43.96
2022-11-14T20:11:43.418Z,44.12
2022-11-14T20:14:12.066Z,43.59
2022-11-14T20:16:38.594Z,43.55
2022-11-14T20:19:05.156Z,43.22
2022-11-14T20:21:35.141Z,43.29
2022-11-14T20:24:01.909Z,43.04
2022-11-14T20:26:28.447Z,42.98
2022-11-14T20:28:54.918Z,43.00
2022-11-14T20:31:27.198Z,43.21
2022-11-14T20:33:54.851Z,43.28
2022-11-14T20:36:24.731Z,43.23
2022-11-14T20:38:52.202Z,43.27
2022-11-14T20:41:19.728Z,43.32
2022-11-14T20:43:47.765Z,43.57
2022-11-14T20:46:17.043Z,43.33
2022-11-14T20:48:46.835Z,43.50
2022-11-14T20:51:16.691Z,43.76
2022-11-14T20:53:43.716Z,43.78
2022-11-14T20:56:12.674Z,43.52
2022-11-14T20:58:46.871Z,44.06
2022-11-14T21:01:14.225Z,43.58
2022-11-14T21:03:42.321Z,44.41
2022-11-14T21:06:12.235Z,44.15
2022-11-14T21:08:39.283Z,44.14
2022-11-14T21:11:08.528Z,44.34
2022-11-14T21:13:55.031Z,44.43
2022-11-14T21:16:23.098Z,44.53
2022-11-14T21:18:53.644Z,44.44
2022-11-14T21:21:23.854Z,44.34
2022-11-14T21:23:54.443Z,44.58
2022-11-14T21:26:29.313Z,45.19
2022-11-14T21:28:58.786Z,45.28
2022-11-14T21:31:27.664Z,45.34
2022-11-14T21:33:57.326Z,45.40
2022-11-14T21:39:14.654Z,45.39
2022-11-14T21:41:44.649Z,45.12
2022-11-14T21:44:17.284Z,45.52
2022-11-14T21:46:46.158Z,45.06
2022-11-14T21:49:14.554Z,45.00
2022-11-14T21:51:51.783Z,44.93
2022-11-14T21:54:18.589Z,44.92
2022-11-14T21:56:44.932Z,45.08
2022-11-14T21:59:16.138Z,45.16
2022-11-14T22:02:06.415Z,45.29
2022-11-14T22:04:33.556Z,45.48
2022-11-14T22:07:02.329Z,45.47
2022-11-14T22:09:31.674Z,45.32
2022-11-14T22:11:58.640Z,45.59
2022-11-14T22:14:25.787Z,45.66
2022-11-14T22:16:52.413Z,45.61
2022-11-14T22:19:19.999Z,45.41
2022-11-14T22:21:46.780Z,45.48
2022-11-14T22:24:13.145Z,45.47
2022-11-14T22:26:40.624Z,45.32
2022-11-14T22:29:10.240Z,45.59
2022-11-14T22:31:37.446Z,45.57
2022-11-14T22:34:04.884Z,45.25
2022-11-14T22:36:31.225Z,45.35
2022-11-14T22:39:00.206Z,45.27
2022-11-14T22:41:32.221Z,45.40
2022-11-14T22:43:59.847Z,45.30
2022-11-14T22:46:28.725Z,45.08
2022-11-14T22:48:55.696Z,45.26
2022-11-14T22:51:25.220Z,45.41
2022-11-14T22:53:54.065Z,45.08
2022-11-14T22:56:23.380Z,45.01
2022-11-14T22:58:49.945Z,45.21
2022-11-14T23:01:20.948Z,45.15
2022-11-14T23:03:48.921Z,45.21
2022-11-14T23:06:17.670Z,45.25
2022-11-14T23:08:44.828Z,45.43
2022-11-14T23:11:24.931Z,45.53
2022-11-14T23:13:56.340Z,45.28
2022-11-14T23:16:25.852Z,45.11
2022-11-14T23:18:55.507Z,45.62
2022-11-14T23:21:25.318Z,45.25
2022-11-14T23:23:57.406Z,45.67
2022-11-14T23:26:25.493Z,45.50
2022-11-14T23:28:52.510Z,45.54
2022-11-14T23:31:21.341Z,45.47
2022-11-14T23:33:52.367Z,45.62
2022-11-14T23:36:19.095Z,45.64
2022-11-14T23:38:45.467Z,45.51
2022-11-14T23:41:20.447Z,45.67
2022-11-14T23:43:47.260Z,45.49
2022-11-14T23:46:14.883Z,45.70
2022-11-14T23:48:41.852Z,45.42
2022-11-14T23:51:09.578Z,45.46
2022-11-14T23:53:36.702Z,45.69
2022-11-14T23:56:03.397Z,46.08
2022-11-14T23:58:30.455Z,45.61
